createdAt,value
2018-01-24T00:00:19.286Z,17.10
2018-01-24T00:01:19.305Z,18.20
2018-01-24T00:02:19.326Z,18.50
2018-01-24T00:03:19.330Z,16.30
2018-01-24T00:04:19.687Z,18.10
2018-01-24T00:05:19.356Z,18.60
2018-01-24T00:06:19.371Z,20.60
2018-01-24T00:07:19.390Z,17.80
2018-01-24T00:08:19.406Z,15.90
2018-01-24T00:09:19.411Z,17.60
2018-01-24T00:10:19.427Z,18.60
2018-01-24T00:11:19.440Z,15.20
2018-01-24T00:12:19.603Z,15.70
2018-01-24T00:13:19.467Z,16.20
2018-01-24T00:14:19.483Z,16.20
2018-01-24T00:15:19.648Z,16.60
2018-01-24T00:16:19.510Z,18.40
2018-01-24T00:17:19.524Z,16.70
2018-01-24T00:18:19.538Z,18.80
2018-01-24T00:19:19.551Z,18.90
2018-01-24T00:20:19.566Z,16.90
2018-01-24T00:21:19.580Z,18.60
2018-01-24T00:22:19.598Z,19.60
2018-01-24T00:23:19.765Z,19.90
2018-01-24T00:24:19.622Z,18.10
2018-01-24T00:25:19.636Z,16.40
2018-01-24T00:26:19.652Z,16.90
2018-01-24T00:27:19.664Z,17.30
2018-01-24T00:28:19.677Z,18.60
2018-01-24T00:29:19.693Z,18.00
2018-01-24T00:30:19.705Z,18.30
2018-01-24T00:31:19.721Z,18.00
2018-01-24T00:32:19.735Z,18.00
2018-01-24T00:33:19.802Z,17.90
2018-01-24T00:34:19.824Z,17.80
2018-01-24T00:35:19.778Z,18.90
2018-01-24T00:36:19.940Z,21.70
2018-01-24T00:37:19.805Z,19.80
2018-01-24T00:38:19.820Z,17.50
2018-01-24T00:39:19.832Z,19.90
2018-01-24T00:40:19.850Z,17.30
2018-01-24T00:41:19.862Z,19.10
2018-01-24T00:42:19.874Z,18.70
2018-01-24T00:43:19.888Z,18.30
2018-01-24T00:44:19.904Z,18.50
2018-01-24T00:45:19.917Z,20.00
2018-01-24T00:46:19.935Z,17.90
2018-01-24T00:47:19.950Z,20.10
2018-01-24T00:48:19.959Z,17.50
2018-01-24T00:49:19.972Z,20.70
2018-01-24T00:50:19.987Z,20.40
2018-01-24T00:51:20.000Z,16.90
2018-01-24T00:52:20.015Z,17.50
2018-01-24T00:53:20.029Z,18.60
2018-01-24T00:54:20.044Z,18.20
2018-01-24T00:55:20.058Z,19.70
2018-01-24T00:56:20.223Z,18.40
2018-01-24T00:57:20.084Z,17.40
2018-01-24T00:58:20.098Z,18.20
2018-01-24T00:59:20.118Z,17.50
2018-01-24T01:00:20.128Z,17.50
2018-01-24T01:01:20.141Z,18.00
2018-01-24T01:02:20.156Z,16.30
2018-01-24T01:03:20.169Z,18.30
2018-01-24T01:04:20.189Z,15.80
2018-01-24T01:05:20.197Z,18.60
2018-01-24T01:06:20.212Z,19.40
2018-01-24T01:07:20.325Z,18.40
2018-01-24T01:08:20.264Z,17.00
2018-01-24T01:09:20.253Z,16.00
2018-01-24T01:10:20.267Z,17.20
2018-01-24T01:11:20.282Z,16.10
2018-01-24T01:12:20.296Z,15.20
2018-01-24T01:13:20.310Z,15.40
2018-01-24T01:14:20.324Z,16.00
2018-01-24T01:15:20.344Z,15.20
2018-01-24T01:16:20.354Z,14.80
2018-01-24T01:17:20.373Z,15.10
2018-01-24T01:18:20.381Z,15.50
2018-01-24T01:19:20.398Z,17.20
2018-01-24T01:20:20.410Z,16.40
2018-01-24T01:21:20.423Z,15.00
2018-01-24T01:22:20.439Z,16.30
2018-01-24T01:23:20.454Z,16.40
2018-01-24T01:24:20.466Z,16.20
2018-01-24T01:25:20.485Z,16.80
2018-01-24T01:26:20.493Z,14.70
2018-01-24T01:27:20.513Z,16.10
2018-01-24T01:28:20.524Z,16.40
2018-01-24T01:29:20.541Z,17.80
2018-01-24T01:30:20.552Z,18.90
2018-01-24T01:31:20.566Z,14.50
2018-01-24T01:32:20.582Z,14.20
2018-01-24T01:33:20.620Z,14.50
2018-01-24T01:34:20.610Z,14.30
2018-01-24T01:35:20.624Z,15.40
2018-01-24T01:36:20.636Z,16.80
2018-01-24T01:37:20.656Z,16.40
2018-01-24T01:38:20.667Z,16.10
2018-01-24T01:39:20.681Z,15.20
2018-01-24T01:40:20.846Z,16.00
2018-01-24T01:41:20.913Z,18.10
2018-01-24T01:42:20.797Z,17.60
2018-01-24T01:43:20.753Z,16.20
2018-01-24T01:44:20.753Z,15.90
2018-01-24T01:45:20.766Z,17.00
2018-01-24T01:46:20.783Z,16.50
2018-01-24T01:47:20.796Z,17.70
2018-01-24T01:48:20.813Z,17.30
2018-01-24T01:49:20.824Z,16.10
2018-01-24T01:50:20.838Z,15.90
2018-01-24T01:51:20.853Z,15.50
2018-01-24T01:52:20.867Z,14.30
2018-01-24T01:53:20.880Z,15.70
2018-01-24T01:54:20.897Z,16.60
2018-01-24T01:55:20.911Z,15.40
2018-01-24T01:56:21.023Z,15.20
2018-01-24T01:57:20.944Z,15.50
2018-01-24T01:58:20.954Z,15.40
2018-01-24T01:59:20.968Z,14.30
2018-01-24T02:00:20.982Z,15.20
2018-01-24T02:01:21.001Z,15.30
2018-01-24T02:02:21.013Z,15.70
2018-01-24T02:03:21.025Z,15.70
2018-01-24T02:04:21.040Z,14.80
2018-01-24T02:05:21.055Z,14.90
2018-01-24T02:06:21.069Z,13.60
2018-01-24T02:07:21.087Z,13.60
2018-01-24T02:08:21.103Z,14.00
2018-01-24T02:09:21.119Z,13.40
2018-01-24T02:10:21.128Z,14.10
2018-01-24T02:11:21.141Z,14.40
2018-01-24T02:12:21.156Z,13.10
2018-01-24T02:13:21.171Z,13.70
2018-01-24T02:14:21.186Z,13.60
2018-01-24T02:15:21.297Z,14.30
2018-01-24T02:16:21.215Z,13.60
2018-01-24T02:17:21.229Z,13.00
2018-01-24T02:18:21.253Z,13.40
2018-01-24T02:19:21.257Z,12.50
2018-01-24T02:20:21.425Z,12.30
2018-01-24T02:21:21.288Z,12.80
2018-01-24T02:22:21.302Z,12.20
2018-01-24T02:23:21.317Z,12.80
2018-01-24T02:24:21.334Z,12.00
2018-01-24T02:25:21.346Z,11.90
2018-01-24T02:26:21.363Z,12.20
2018-01-24T02:27:21.377Z,12.70
2018-01-24T02:28:21.392Z,12.40
2018-01-24T02:29:21.403Z,11.90
2018-01-24T02:30:21.568Z,12.60
2018-01-24T02:31:21.445Z,11.80
2018-01-24T02:32:21.450Z,12.30
2018-01-24T02:33:21.464Z,11.90
2018-01-24T02:34:21.630Z,12.30
2018-01-24T02:35:21.498Z,12.80
2018-01-24T02:36:21.518Z,12.20
2018-01-24T02:38:21.537Z,11.50
2018-01-24T02:39:21.551Z,11.50
2018-01-24T02:40:21.571Z,11.40
2018-01-24T02:41:21.582Z,11.80
2018-01-24T02:42:21.596Z,11.80
2018-01-24T02:43:21.611Z,11.20
2018-01-24T02:44:21.626Z,11.70
2018-01-24T02:45:21.791Z,11.70
2018-01-24T02:46:22.099Z,11.30
2018-01-24T02:48:22.647Z,11.80
2018-01-24T02:50:22.524Z,12.30
2018-01-24T02:51:22.916Z,11.40
2018-01-24T02:52:21.745Z,11.80
2018-01-24T02:53:21.756Z,11.40
2018-01-24T02:54:21.773Z,12.10
2018-01-24T02:55:21.818Z,10.50
2018-01-24T02:56:21.802Z,11.00
2018-01-24T02:57:21.817Z,12.40
2018-01-24T02:58:21.867Z,13.50
2018-01-24T02:59:21.951Z,13.40
2018-01-24T03:00:21.861Z,12.30
2018-01-24T03:01:21.877Z,12.30
2018-01-24T03:02:21.898Z,11.70
2018-01-24T03:03:21.908Z,13.00
2018-01-24T03:04:21.921Z,12.00
2018-01-24T03:05:21.936Z,12.20
2018-01-24T03:06:21.955Z,12.70
2018-01-24T03:07:21.971Z,12.70
2018-01-24T03:08:21.979Z,12.90
2018-01-24T03:09:21.997Z,12.70
2018-01-24T03:10:22.010Z,13.90
2018-01-24T03:11:22.024Z,12.90
2018-01-24T03:12:22.042Z,12.60
2018-01-24T03:13:22.203Z,13.00
2018-01-24T03:14:22.071Z,12.60
2018-01-24T03:15:22.485Z,12.00
2018-01-24T03:16:22.112Z,12.60
2018-01-24T03:17:22.118Z,12.50
2018-01-24T03:18:22.127Z,12.60
2018-01-24T03:19:22.142Z,13.70
2018-01-24T03:20:22.157Z,12.60
2018-01-24T03:21:22.433Z,12.50
2018-01-24T03:24:22.252Z,13.00
2018-01-24T03:25:22.235Z,13.10
2018-01-24T03:26:22.246Z,12.10
2018-01-24T03:27:22.260Z,12.80
2018-01-24T03:28:22.279Z,12.60
2018-01-24T03:29:22.292Z,12.00
2018-01-24T03:30:22.307Z,11.60
2018-01-24T03:31:22.329Z,11.70
2018-01-24T03:32:22.372Z,15.40
2018-01-24T03:33:22.357Z,12.30
2018-01-24T03:34:22.368Z,11.60
2018-01-24T03:35:22.381Z,11.60
2018-01-24T03:36:22.400Z,11.80
2018-01-24T03:37:22.408Z,12.00
2018-01-24T03:38:22.424Z,11.80
2018-01-24T03:39:22.440Z,11.90
2018-01-24T03:40:22.454Z,11.60
2018-01-24T03:41:22.870Z,11.80
2018-01-24T03:42:22.484Z,12.00
2018-01-24T03:43:22.649Z,11.70
2018-01-24T03:44:22.515Z,12.40
2018-01-24T03:45:22.530Z,12.20
2018-01-24T03:46:22.542Z,11.90
2018-01-24T03:47:22.561Z,11.80
2018-01-24T03:48:22.583Z,12.00
2018-01-24T03:49:22.988Z,12.70
2018-01-24T03:50:22.610Z,12.30
2018-01-24T03:52:22.983Z,12.30
2018-01-24T03:53:22.912Z,12.30
2018-01-24T03:56:23.307Z,12.40
2018-01-24T03:57:22.714Z,12.40
2018-01-24T03:58:22.721Z,13.60
2018-01-24T03:59:22.737Z,13.30
2018-01-24T04:00:22.757Z,12.40
2018-01-24T04:01:22.766Z,12.50
2018-01-24T04:02:22.781Z,12.30
2018-01-24T04:03:22.912Z,12.90
2018-01-24T04:04:22.810Z,13.30
2018-01-24T04:05:22.826Z,13.60
2018-01-24T04:06:22.843Z,13.50
2018-01-24T04:07:22.861Z,13.00
2018-01-24T04:08:22.873Z,13.60
2018-01-24T04:09:22.889Z,13.40
2018-01-24T04:10:22.901Z,13.90
2018-01-24T04:11:22.916Z,14.00
2018-01-24T04:12:22.933Z,13.70
2018-01-24T04:13:22.949Z,13.50
2018-01-24T04:14:22.964Z,14.20
2018-01-24T04:15:22.978Z,15.10
2018-01-24T04:16:22.991Z,14.00
2018-01-24T04:17:23.007Z,14.10
2018-01-24T04:18:23.024Z,13.20
2018-01-24T04:19:23.044Z,13.70
2018-01-24T04:20:23.056Z,13.70
2018-01-24T04:21:23.071Z,13.40
2018-01-24T04:22:23.085Z,13.50
2018-01-24T04:23:23.098Z,14.10
2018-01-24T04:24:23.120Z,13.50
2018-01-24T04:25:23.162Z,13.90
2018-01-24T04:26:23.143Z,13.50
2018-01-24T04:27:23.180Z,13.20
2018-01-24T04:28:23.526Z,13.60
2018-01-24T04:29:23.568Z,13.00
2018-01-24T04:30:23.218Z,13.10
2018-01-24T04:31:23.221Z,12.80
2018-01-24T04:32:23.236Z,13.00
2018-01-24T04:33:23.249Z,13.60
2018-01-24T04:34:23.263Z,12.90
2018-01-24T04:35:23.278Z,12.70
2018-01-24T04:36:23.301Z,12.70
2018-01-24T04:37:23.321Z,13.30
2018-01-24T04:38:23.324Z,13.20
2018-01-24T04:39:23.340Z,12.50
2018-01-24T04:40:23.353Z,12.70
2018-01-24T04:41:23.521Z,13.30
2018-01-24T04:42:23.386Z,13.40
2018-01-24T04:43:23.403Z,13.00
2018-01-24T04:44:23.418Z,13.00
2018-01-24T04:45:23.428Z,13.30
2018-01-24T04:46:23.444Z,14.00
2018-01-24T04:47:23.458Z,12.50
2018-01-24T04:48:23.474Z,12.70
2018-01-24T04:49:23.487Z,12.90
2018-01-24T04:50:23.657Z,12.90
2018-01-24T04:51:23.523Z,13.10
2018-01-24T04:52:23.546Z,13.20
2018-01-24T04:53:23.549Z,12.90
2018-01-24T04:54:23.590Z,12.20
2018-01-24T04:55:23.982Z,14.40
2018-01-24T04:56:23.606Z,13.00
2018-01-24T04:57:23.613Z,14.00
2018-01-24T04:59:24.055Z,12.50
2018-01-24T05:00:23.655Z,13.00
2018-01-24T05:01:23.672Z,14.60
2018-01-24T05:02:23.838Z,13.70
2018-01-24T05:03:23.702Z,13.70
2018-01-24T05:04:23.715Z,13.30
2018-01-24T05:05:23.730Z,13.30
2018-01-24T05:06:23.759Z,13.90
2018-01-24T05:07:23.771Z,14.00
2018-01-24T05:08:23.775Z,13.20
2018-01-24T05:09:23.790Z,16.50
2018-01-24T05:10:23.806Z,14.40
2018-01-24T05:11:23.819Z,15.40
2018-01-24T05:12:23.835Z,15.30
2018-01-24T05:13:23.851Z,14.60
2018-01-24T05:14:23.872Z,14.30
2018-01-24T05:15:23.885Z,14.20
2018-01-24T05:16:23.898Z,16.20
2018-01-24T05:17:23.909Z,15.20
2018-01-24T05:18:23.926Z,14.40
2018-01-24T05:19:23.941Z,15.60
2018-01-24T05:20:23.956Z,14.30
2018-01-24T05:21:23.970Z,14.50
2018-01-24T05:22:24.136Z,15.50
2018-01-24T05:23:24.001Z,15.80
2018-01-24T05:24:24.015Z,15.30
2018-01-24T05:25:24.028Z,16.10
2018-01-24T05:26:24.196Z,17.60
2018-01-24T05:27:24.064Z,16.00
2018-01-24T05:28:24.094Z,15.00
2018-01-24T05:30:24.105Z,14.70
2018-01-24T05:31:24.160Z,14.70
2018-01-24T05:32:24.492Z,14.90
2018-01-24T05:33:24.346Z,15.90
2018-01-24T05:34:24.170Z,14.40
2018-01-24T05:35:24.202Z,13.70
2018-01-24T05:36:24.194Z,13.90
2018-01-24T05:37:24.329Z,14.40
2018-01-24T05:38:25.024Z,12.90
2018-01-24T05:39:24.773Z,13.90
2018-01-24T05:42:24.283Z,13.00
2018-01-24T05:43:24.299Z,12.50
2018-01-24T05:44:24.313Z,13.50
2018-01-24T05:45:24.328Z,13.00
2018-01-24T05:46:24.347Z,13.50
2018-01-24T05:47:24.360Z,13.80
2018-01-24T05:48:24.373Z,13.80
2018-01-24T05:49:24.392Z,14.00
2018-01-24T05:51:24.785Z,11.40
2018-01-24T05:52:24.436Z,11.40
2018-01-24T05:53:24.450Z,10.30
2018-01-24T05:54:24.477Z,12.50
2018-01-24T05:55:24.906Z,10.40
2018-01-24T05:56:24.519Z,10.50
2018-01-24T05:57:24.540Z,10.00
2018-01-24T05:58:24.528Z,9.40
2018-01-24T05:59:24.540Z,10.40
2018-01-24T06:00:25.218Z,9.10
2018-01-24T06:01:27.956Z,9.20
2018-01-24T06:02:24.787Z,10.50
2018-01-24T06:03:25.151Z,9.10
2018-01-24T06:04:25.226Z,8.70
2018-01-24T06:05:24.732Z,9.20
2018-01-24T06:06:25.050Z,7.50
2018-01-24T06:07:24.667Z,9.60
2018-01-24T06:08:24.731Z,8.50
2018-01-24T06:09:24.840Z,10.80
2018-01-24T06:10:25.613Z,7.30
2018-01-24T06:11:24.718Z,8.60
2018-01-24T06:12:24.906Z,7.20
2018-01-24T06:13:24.745Z,6.60
2018-01-24T06:14:24.763Z,6.70
2018-01-24T06:15:24.776Z,6.20
2018-01-24T06:16:24.815Z,7.00
2018-01-24T06:17:24.815Z,6.00
2018-01-24T06:18:24.953Z,6.00
2018-01-24T06:19:24.835Z,6.20
2018-01-24T06:20:24.851Z,5.90
2018-01-24T06:21:24.898Z,6.30
2018-01-24T06:22:24.885Z,5.10
2018-01-24T06:23:24.898Z,6.00
2018-01-24T06:24:24.919Z,5.70
2018-01-24T06:25:24.932Z,5.10
2018-01-24T06:26:24.943Z,6.80
2018-01-24T06:27:25.111Z,5.70
2018-01-24T06:28:24.974Z,4.90
2018-01-24T06:29:24.989Z,6.10
2018-01-24T06:30:25.015Z,4.80
2018-01-24T06:31:25.017Z,5.70
2018-01-24T06:32:25.045Z,5.00
2018-01-24T06:33:25.046Z,6.60
2018-01-24T06:34:25.135Z,5.10
2018-01-24T06:36:25.374Z,3.40
2018-01-24T06:38:25.665Z,6.70
2018-01-24T06:39:25.234Z,4.40
2018-01-24T06:40:25.173Z,4.10
2018-01-24T06:41:25.629Z,4.60
2018-01-24T06:42:25.185Z,5.40
2018-01-24T06:43:25.201Z,3.40
2018-01-24T06:44:25.215Z,4.40
2018-01-24T06:45:25.226Z,3.00
2018-01-24T06:46:25.300Z,3.60
2018-01-24T06:47:25.252Z,4.70
2018-01-24T06:48:25.273Z,4.30
2018-01-24T06:49:25.304Z,3.20
2018-01-24T06:50:25.299Z,3.40
2018-01-24T06:51:25.315Z,3.00
2018-01-24T06:52:25.330Z,4.10
2018-01-24T06:53:25.411Z,3.50
2018-01-24T06:54:25.511Z,3.60
2018-01-24T06:55:25.379Z,3.60
2018-01-24T06:56:25.444Z,4.80
2018-01-24T06:57:25.425Z,3.10
2018-01-24T06:58:25.419Z,3.50
2018-01-24T06:59:25.441Z,4.10
2018-01-24T07:00:25.651Z,3.70
2018-01-24T07:01:25.494Z,3.50
2018-01-24T07:02:25.479Z,3.30
2018-01-24T07:03:25.492Z,3.20
2018-01-24T07:04:25.524Z,3.00
2018-01-24T07:05:25.523Z,3.50
2018-01-24T07:06:25.780Z,3.00
2018-01-24T07:07:25.607Z,3.10
2018-01-24T07:08:25.742Z,2.50
2018-01-24T07:09:25.738Z,3.60
2018-01-24T07:10:26.018Z,5.10
2018-01-24T07:11:25.716Z,2.70
2018-01-24T07:12:25.998Z,3.50
2018-01-24T07:13:25.675Z,3.20
2018-01-24T07:14:25.718Z,2.90
2018-01-24T07:15:25.674Z,3.50
2018-01-24T07:16:25.696Z,4.50
2018-01-24T07:17:25.844Z,3.00
2018-01-24T07:18:25.721Z,4.40
2018-01-24T07:19:25.736Z,2.80
2018-01-24T07:20:25.758Z,3.70
2018-01-24T07:21:25.765Z,3.80
2018-01-24T07:22:25.855Z,4.40
2018-01-24T07:23:25.858Z,3.20
2018-01-24T07:24:25.898Z,2.60
2018-01-24T07:25:25.820Z,2.70
2018-01-24T07:26:25.833Z,3.30
2018-01-24T07:27:25.863Z,3.20
2018-01-24T07:28:25.868Z,5.50
2018-01-24T07:29:25.885Z,3.40
2018-01-24T07:30:25.918Z,2.70
2018-01-24T07:31:25.918Z,3.90
2018-01-24T07:32:25.925Z,2.40
2018-01-24T07:33:25.939Z,2.90
2018-01-24T07:34:25.962Z,3.20
2018-01-24T07:35:25.969Z,2.60
2018-01-24T07:36:25.987Z,3.10
2018-01-24T07:37:26.005Z,3.60
2018-01-24T07:38:26.036Z,2.90
2018-01-24T07:39:26.032Z,3.00
2018-01-24T07:40:26.046Z,4.60
2018-01-24T07:41:26.078Z,2.60
2018-01-24T07:42:26.226Z,2.70
2018-01-24T07:43:26.295Z,2.60
2018-01-24T07:44:26.666Z,3.60
2018-01-24T07:45:27.388Z,3.10
2018-01-24T07:46:26.859Z,2.90
2018-01-24T07:47:26.191Z,2.60
2018-01-24T07:48:26.343Z,2.20
2018-01-24T07:49:26.181Z,3.60
2018-01-24T07:50:26.198Z,2.20
2018-01-24T07:51:26.216Z,2.90
2018-01-24T07:52:26.389Z,2.20
2018-01-24T07:53:26.250Z,2.60
2018-01-24T07:54:26.256Z,3.30
2018-01-24T07:55:26.291Z,2.60
2018-01-24T07:56:26.290Z,2.60
2018-01-24T07:57:26.303Z,2.40
2018-01-24T07:58:26.333Z,2.40
2018-01-24T07:59:26.337Z,2.10
2018-01-24T08:00:26.379Z,2.20
2018-01-24T08:01:26.370Z,2.60
2018-01-24T08:02:26.384Z,2.60
2018-01-24T08:03:26.395Z,2.10
2018-01-24T08:04:26.420Z,2.80
2018-01-24T08:05:26.433Z,2.80
2018-01-24T08:06:26.863Z,2.60
2018-01-24T08:07:26.918Z,3.10
2018-01-24T08:08:27.263Z,3.60
2018-01-24T08:09:27.062Z,2.30
2018-01-24T08:10:26.501Z,3.20
2018-01-24T08:11:26.518Z,3.10
2018-01-24T08:12:26.531Z,3.30
2018-01-24T08:13:26.554Z,2.40
2018-01-24T08:14:26.703Z,2.80
2018-01-24T08:16:27.010Z,2.60
2018-01-24T08:17:26.707Z,2.20
2018-01-24T08:20:27.873Z,2.30
2018-01-24T08:21:26.699Z,3.40
2018-01-24T08:22:26.686Z,3.00
2018-01-24T08:23:27.587Z,2.20
2018-01-24T08:24:26.714Z,2.40
2018-01-24T08:25:26.733Z,3.30
2018-01-24T08:26:26.752Z,2.80
2018-01-24T08:27:26.760Z,2.50
2018-01-24T08:28:26.775Z,3.00
2018-01-24T08:29:26.791Z,2.40
2018-01-24T08:30:26.807Z,2.70
2018-01-24T08:31:26.997Z,2.00
2018-01-24T08:32:26.847Z,2.70
2018-01-24T08:33:26.855Z,3.10
2018-01-24T08:34:26.872Z,3.60
2018-01-24T08:35:26.892Z,2.80
2018-01-24T08:36:26.898Z,1.70
2018-01-24T08:37:26.920Z,4.20
2018-01-24T08:38:27.008Z,2.60
2018-01-24T08:39:26.946Z,2.70
2018-01-24T08:40:26.973Z,4.40
2018-01-24T08:41:26.976Z,2.20
2018-01-24T08:42:26.993Z,2.70
2018-01-24T08:43:27.021Z,2.40
2018-01-24T08:44:27.133Z,2.20
2018-01-24T08:47:27.216Z,3.00
2018-01-24T08:48:28.299Z,3.00
2018-01-24T08:49:27.099Z,2.30
2018-01-24T08:50:27.119Z,2.10
2018-01-24T08:51:27.185Z,1.60
2018-01-24T08:52:27.148Z,2.10
2018-01-24T08:53:27.169Z,3.10
2018-01-24T08:54:27.191Z,1.40
2018-01-24T08:55:27.202Z,3.30
2018-01-24T08:56:27.211Z,2.10
2018-01-24T08:57:27.268Z,2.00
2018-01-24T08:58:27.237Z,3.00
2018-01-24T08:59:27.254Z,1.80
2018-01-24T09:00:27.273Z,1.70
2018-01-24T09:01:27.297Z,2.10
2018-01-24T09:02:27.302Z,2.20
2018-01-24T09:03:27.324Z,1.80
2018-01-24T09:04:27.332Z,1.40
2018-01-24T09:05:27.346Z,2.80
2018-01-24T09:06:27.365Z,1.60
2018-01-24T09:07:27.388Z,2.70
2018-01-24T09:08:27.397Z,1.80
2018-01-24T09:09:27.415Z,2.50
2018-01-24T09:10:27.627Z,1.60
2018-01-24T09:11:27.462Z,2.60
2018-01-24T09:12:28.074Z,2.00
2018-01-24T09:13:27.465Z,1.60
2018-01-24T09:14:27.494Z,2.10
2018-01-24T09:15:27.497Z,1.90
2018-01-24T09:16:27.512Z,3.90
2018-01-24T09:17:27.644Z,1.20
2018-01-24T09:18:27.544Z,1.60
2018-01-24T09:19:27.568Z,2.10
2018-01-24T09:21:28.053Z,2.80
2018-01-24T09:22:27.736Z,4.10
2018-01-24T09:23:28.390Z,2.80
2018-01-24T09:24:27.657Z,1.50
2018-01-24T09:25:27.674Z,2.10
2018-01-24T09:26:27.673Z,1.60
2018-01-24T09:27:27.703Z,1.20
2018-01-24T09:28:27.705Z,1.80
2018-01-24T09:29:27.721Z,1.30
2018-01-24T09:30:27.733Z,1.00
2018-01-24T09:31:27.748Z,1.60
2018-01-24T09:32:27.763Z,1.90
2018-01-24T09:33:27.781Z,1.90
2018-01-24T09:34:27.795Z,1.60
2018-01-24T09:35:27.855Z,1.40
2018-01-24T09:36:27.825Z,3.20
2018-01-24T09:37:27.842Z,1.90
2018-01-24T09:38:27.888Z,1.40
2018-01-24T09:40:27.905Z,1.80
2018-01-24T09:41:28.717Z,1.90
2018-01-24T09:42:27.920Z,2.30
2018-01-24T09:43:27.937Z,1.60
2018-01-24T09:44:27.959Z,1.90
2018-01-24T09:45:28.103Z,2.50
2018-01-24T09:46:28.439Z,2.00
2018-01-24T09:47:28.196Z,2.20
2018-01-24T09:48:28.319Z,3.00
2018-01-24T09:49:28.046Z,1.40
2018-01-24T09:50:28.044Z,1.90
2018-01-24T09:51:28.081Z,1.70
2018-01-24T09:52:28.082Z,1.80
2018-01-24T09:53:28.092Z,2.40
2018-01-24T09:54:28.330Z,1.60
2018-01-24T09:55:28.510Z,1.90
2018-01-24T09:56:28.954Z,2.40
2018-01-24T09:57:28.174Z,2.60
2018-01-24T09:58:28.176Z,1.60
2018-01-24T09:59:28.188Z,2.30
2018-01-24T10:00:28.216Z,3.30
2018-01-24T10:01:28.271Z,2.40
2018-01-24T10:02:28.240Z,3.00
2018-01-24T10:03:28.791Z,2.70
2018-01-24T10:04:29.267Z,2.20
2018-01-24T10:05:28.285Z,2.90
2018-01-24T10:06:28.303Z,1.90
2018-01-24T10:07:28.319Z,2.40
2018-01-24T10:08:28.334Z,1.90
2018-01-24T10:09:28.345Z,1.90
2018-01-24T10:10:28.358Z,1.20
2018-01-24T10:11:28.394Z,1.90
2018-01-24T10:12:28.394Z,2.30
2018-01-24T10:13:28.407Z,1.80
2018-01-24T10:14:28.438Z,1.70
2018-01-24T10:15:28.443Z,2.20
2018-01-24T10:16:28.455Z,2.10
2018-01-24T10:17:28.471Z,1.90
2018-01-24T10:18:28.594Z,2.00
2018-01-24T10:19:28.506Z,1.50
2018-01-24T10:20:28.614Z,2.80
2018-01-24T10:21:29.666Z,1.60
2018-01-24T10:23:28.617Z,1.90
2018-01-24T10:25:28.602Z,1.70
2018-01-24T10:26:29.140Z,3.50
2018-01-24T10:27:29.032Z,3.40
2018-01-24T10:29:28.887Z,1.70
2018-01-24T10:30:28.687Z,1.40
2018-01-24T10:31:29.686Z,2.60
2018-01-24T10:33:28.778Z,2.10
2018-01-24T10:34:28.749Z,1.90
2018-01-24T10:35:28.909Z,2.10
2018-01-24T10:36:28.930Z,4.10
2018-01-24T10:37:28.797Z,2.80
2018-01-24T10:38:28.807Z,2.10
2018-01-24T10:39:28.826Z,1.90
2018-01-24T10:40:28.839Z,1.70
2018-01-24T10:41:28.855Z,2.40
2018-01-24T10:42:28.873Z,1.80
2018-01-24T10:43:28.890Z,2.00
2018-01-24T10:44:28.904Z,1.30
2018-01-24T10:45:28.924Z,1.70
2018-01-24T10:46:29.238Z,4.80
2018-01-24T10:47:28.961Z,2.30
2018-01-24T10:48:28.968Z,1.90
2018-01-24T10:49:31.362Z,3.00
2018-01-24T10:50:28.998Z,1.80
2018-01-24T10:51:29.023Z,1.60
2018-01-24T10:52:29.034Z,3.30
2018-01-24T10:53:29.049Z,1.80
2018-01-24T10:54:29.068Z,2.20
2018-01-24T10:55:29.169Z,1.70
2018-01-24T10:56:29.103Z,1.50
2018-01-24T10:57:29.116Z,2.30
2018-01-24T10:58:29.127Z,1.70
2018-01-24T11:01:30.047Z,2.40
2018-01-24T11:02:29.351Z,1.70
2018-01-24T11:03:29.254Z,1.90
2018-01-24T11:04:29.241Z,2.40
2018-01-24T11:05:29.263Z,2.20
2018-01-24T11:06:29.309Z,3.30
2018-01-24T11:07:29.284Z,2.20
2018-01-24T11:08:29.290Z,3.30
2018-01-24T11:09:29.459Z,2.20
2018-01-24T11:10:29.355Z,3.50
2018-01-24T11:11:29.376Z,1.40
2018-01-24T11:12:29.371Z,1.60
2018-01-24T11:13:29.366Z,2.10
2018-01-24T11:14:29.383Z,1.70
2018-01-24T11:15:29.400Z,1.40
2018-01-24T11:16:29.419Z,0.90
2018-01-24T11:17:29.522Z,1.10
2018-01-24T11:18:29.449Z,1.20
2018-01-24T11:19:29.470Z,2.20
2018-01-24T11:20:29.484Z,2.30
2018-01-24T11:21:29.516Z,2.90
2018-01-24T11:22:29.516Z,1.90
2018-01-24T11:23:29.529Z,3.20
2018-01-24T11:24:29.545Z,2.60
2018-01-24T11:25:29.563Z,1.80
2018-01-24T11:26:29.578Z,2.20
2018-01-24T11:27:29.596Z,2.40
2018-01-24T11:28:29.613Z,3.20
2018-01-24T11:29:29.628Z,2.30
2018-01-24T11:30:29.655Z,2.40
2018-01-24T11:31:29.662Z,2.30
2018-01-24T11:32:29.832Z,2.80
2018-01-24T11:33:29.796Z,1.20
2018-01-24T11:34:30.118Z,1.40
2018-01-24T11:35:30.080Z,1.10
2018-01-24T11:36:29.996Z,1.60
2018-01-24T11:37:29.765Z,1.50
2018-01-24T11:38:29.775Z,2.60
2018-01-24T11:39:29.948Z,2.70
2018-01-24T11:40:29.809Z,1.70
2018-01-24T11:41:29.824Z,1.60
2018-01-24T11:42:29.847Z,1.70
2018-01-24T11:43:29.858Z,1.30
2018-01-24T11:44:29.878Z,1.20
2018-01-24T11:45:30.252Z,2.00
2018-01-24T11:47:29.925Z,1.70
2018-01-24T11:48:29.939Z,3.10
2018-01-24T11:49:30.105Z,1.40
2018-01-24T11:50:29.972Z,1.20
2018-01-24T11:51:29.988Z,1.80
2018-01-24T11:52:30.008Z,1.00
2018-01-24T11:53:30.021Z,1.40
2018-01-24T11:54:30.043Z,1.90
2018-01-24T11:55:30.072Z,1.70
2018-01-24T11:56:30.072Z,2.60
2018-01-24T11:57:30.088Z,2.30
2018-01-24T11:58:30.103Z,1.60
2018-01-24T11:59:30.300Z,1.40
2018-01-24T12:00:30.144Z,1.40
2018-01-24T12:01:30.202Z,1.30
2018-01-24T12:02:30.185Z,1.20
2018-01-24T12:03:30.202Z,1.40
2018-01-24T12:05:30.218Z,1.90
2018-01-24T12:06:30.386Z,1.40
2018-01-24T12:07:30.253Z,1.90
2018-01-24T12:08:31.069Z,1.60
2018-01-24T12:09:30.604Z,1.50
2018-01-24T12:10:30.307Z,1.60
2018-01-24T12:11:30.327Z,1.20
2018-01-24T12:12:30.333Z,1.20
2018-01-24T12:13:30.398Z,1.10
2018-01-24T12:14:30.367Z,1.60
2018-01-24T12:15:30.403Z,1.20
2018-01-24T12:16:30.400Z,1.20
2018-01-24T12:17:30.959Z,3.60
2018-01-24T12:18:30.448Z,2.10
2018-01-24T12:19:30.454Z,1.00
2018-01-24T12:20:30.467Z,1.30
2018-01-24T12:21:30.581Z,1.30
2018-01-24T12:22:30.498Z,1.90
2018-01-24T12:23:30.521Z,1.00
2018-01-24T12:24:30.531Z,1.30
2018-01-24T12:25:30.546Z,1.90
2018-01-24T12:26:30.643Z,1.80
2018-01-24T12:27:30.582Z,1.90
2018-01-24T12:28:30.595Z,1.40
2018-01-24T12:29:30.661Z,1.20
2018-01-24T12:30:30.632Z,1.60
2018-01-24T12:31:30.657Z,1.60
2018-01-24T12:33:30.678Z,1.60
2018-01-24T12:34:30.706Z,1.20
2018-01-24T12:36:31.023Z,1.90
2018-01-24T12:37:30.748Z,1.00
2018-01-24T12:39:30.784Z,2.50
2018-01-24T12:40:30.869Z,2.90
2018-01-24T12:41:30.896Z,1.20
2018-01-24T12:42:31.618Z,1.30
2018-01-24T12:43:30.851Z,2.00
2018-01-24T12:44:30.856Z,1.20
2018-01-24T12:45:30.880Z,1.10
2018-01-24T12:46:30.888Z,1.30
2018-01-24T12:47:31.268Z,1.60
2018-01-24T12:48:30.957Z,1.10
2018-01-24T12:49:30.937Z,1.50
2018-01-24T12:50:30.956Z,1.30
2018-01-24T12:52:30.987Z,1.20
2018-01-24T12:53:31.002Z,1.50
2018-01-24T12:54:31.029Z,1.50
2018-01-24T12:55:31.088Z,1.90
2018-01-24T12:56:31.060Z,1.30
2018-01-24T12:57:31.217Z,2.00
2018-01-24T12:58:31.087Z,2.40
2018-01-24T12:59:31.105Z,0.70
2018-01-24T13:00:31.118Z,1.00
2018-01-24T13:01:32.800Z,1.00
2018-01-24T13:02:33.806Z,1.40
2018-01-24T13:03:31.316Z,3.00
2018-01-24T13:04:31.194Z,2.00
2018-01-24T13:05:31.208Z,1.20
2018-01-24T13:06:31.217Z,1.30
2018-01-24T13:07:31.229Z,1.50
2018-01-24T13:08:31.246Z,1.60
2018-01-24T13:09:31.316Z,2.30
2018-01-24T13:10:31.284Z,1.00
2018-01-24T13:11:31.301Z,1.60
2018-01-24T13:12:31.312Z,2.10
2018-01-24T13:13:31.326Z,1.70
2018-01-24T13:14:31.343Z,4.10
2018-01-24T13:15:32.591Z,0.80
2018-01-24T13:16:33.565Z,1.00
2018-01-24T13:17:31.396Z,2.00
2018-01-24T13:18:31.406Z,1.80
2018-01-24T13:19:31.888Z,2.00
2018-01-24T13:20:31.444Z,2.00
2018-01-24T13:21:31.459Z,1.00
2018-01-24T13:22:31.471Z,2.50
2018-01-24T13:23:32.078Z,1.50
2018-01-24T13:24:31.507Z,1.90
2018-01-24T13:25:31.519Z,2.60
2018-01-24T13:26:32.021Z,1.20
2018-01-24T13:27:31.553Z,1.90
2018-01-24T13:28:31.591Z,2.00
2018-01-24T13:29:31.587Z,1.80
2018-01-24T13:30:31.620Z,1.10
2018-01-24T13:31:31.630Z,1.20
2018-01-24T13:32:31.645Z,0.90
2018-01-24T13:33:31.865Z,2.10
2018-01-24T13:34:31.685Z,1.10
2018-01-24T13:35:31.689Z,1.30
2018-01-24T13:36:31.700Z,1.30
2018-01-24T13:37:31.736Z,1.30
2018-01-24T13:38:31.746Z,1.30
2018-01-24T13:40:32.562Z,1.10
2018-01-24T13:41:31.841Z,4.00